sensor_id;sensor_type;location;lat;lon;timestamp;pressure;altitude;pressure_sealevel;temperature;humidity
30819;BME280;17546;42.674;23.284;2023-06-22T00:01:02;95173.38;;;28.59;38.08
30819;BME280;17546;42.674;23.284;2023-06-22T00:03:27;95159.94;;;28.50;38.02
30819;BME280;17546;42.674;23.284;2023-06-22T00:05:53;95165.56;;;28.29;38.89
30819;BME280;17546;42.674;23.284;2023-06-22T00:08:19;95159.56;;;28.34;38.79
30819;BME280;17546;42.674;23.284;2023-06-22T00:10:45;95156.78;;;28.25;38.60
30819;BME280;17546;42.674;23.284;2023-06-22T00:13:12;95128.53;;;28.07;38.87
30819;BME280;17546;42.674;23.284;2023-06-22T00:15:39;95160.78;;;28.31;38.96
30819;BME280;17546;42.674;23.284;2023-06-22T00:18:06;95148.16;;;28.03;39.30
30819;BME280;17546;42.674;23.284;2023-06-22T00:20:34;95127.81;;;27.97;38.91
30819;BME280;17546;42.674;23.284;2023-06-22T00:23:03;95135.91;;;27.91;38.73
30819;BME280;17546;42.674;23.284;2023-06-22T00:25:38;95133.97;;;27.93;38.58
30819;BME280;17546;42.674;23.284;2023-06-22T00:28:05;95121.66;;;28.00;38.40
30819;BME280;17546;42.674;23.284;2023-06-22T00:30:32;95107.78;;;27.85;38.63
30819;BME280;17546;42.674;23.284;2023-06-22T00:32:58;95144.38;;;28.10;38.80
30819;BME280;17546;42.674;23.284;2023-06-22T00:35:24;95140.38;;;28.03;38.85
30819;BME280;17546;42.674;23.284;2023-06-22T00:38:00;95126.00;;;28.01;38.57
30819;BME280;17546;42.674;23.284;2023-06-22T00:40:27;95129.78;;;27.94;39.04
30819;BME280;17546;42.674;23.284;2023-06-22T00:42:53;95123.19;;;27.82;39.33
30819;BME280;17546;42.674;23.284;2023-06-22T00:45:18;95141.78;;;27.83;39.61
30819;BME280;17546;42.674;23.284;2023-06-22T00:47:44;95132.03;;;27.96;39.21
30819;BME280;17546;42.674;23.284;2023-06-22T00:50:16;95119.31;;;27.87;39.28
30819;BME280;17546;42.674;23.284;2023-06-22T00:52:43;95093.03;;;27.57;39.40
30819;BME280;17546;42.674;23.284;2023-06-22T00:55:11;95135.91;;;28.00;39.14
30819;BME280;17546;42.674;23.284;2023-06-22T00:57:37;95144.44;;;28.00;39.22
30819;BME280;17546;42.674;23.284;2023-06-22T01:00:03;95116.16;;;27.83;39.22
30819;BME280;17546;42.674;23.284;2023-06-22T01:02:31;95129.03;;;27.94;38.97
30819;BME280;17546;42.674;23.284;2023-06-22T01:04:57;95120.25;;;27.70;39.29
30819;BME280;17546;42.674;23.284;2023-06-22T01:07:30;95155.06;;;28.00;39.38
30819;BME280;17546;42.674;23.284;2023-06-22T01:12:31;95139.28;;;27.58;39.81
30819;BME280;17546;42.674;23.284;2023-06-22T01:15:07;95144.38;;;27.69;39.89
30819;BME280;17546;42.674;23.284;2023-06-22T01:17:34;95150.47;;;27.85;39.46
30819;BME280;17546;42.674;23.284;2023-06-22T01:20:00;95138.19;;;27.73;39.75
30819;BME280;17546;42.674;23.284;2023-06-22T01:22:30;95148.69;;;27.70;39.90
30819;BME280;17546;42.674;23.284;2023-06-22T01:25:10;95133.16;;;27.61;39.41
30819;BME280;17546;42.674;23.284;2023-06-22T01:30:07;95154.38;;;27.70;39.20
30819;BME280;17546;42.674;23.284;2023-06-22T01:32:36;95169.06;;;27.67;39.91
30819;BME280;17546;42.674;23.284;2023-06-22T01:35:05;95150.41;;;27.54;40.02
30819;BME280;17546;42.674;23.284;2023-06-22T01:37:33;95161.47;;;27.50;39.92
30819;BME280;17546;42.674;23.284;2023-06-22T01:40:00;95156.69;;;27.52;40.42
30819;BME280;17546;42.674;23.284;2023-06-22T01:42:26;95166.69;;;27.63;40.06
30819;BME280;17546;42.674;23.284;2023-06-22T01:44:53;95173.41;;;27.58;40.07
30819;BME280;17546;42.674;23.284;2023-06-22T01:47:20;95171.94;;;27.57;40.62
30819;BME280;17546;42.674;23.284;2023-06-22T01:49:46;95160.72;;;27.49;40.37
30819;BME280;17546;42.674;23.284;2023-06-22T01:52:11;95177.63;;;27.57;40.29
30819;BME280;17546;42.674;23.284;2023-06-22T01:54:39;95137.84;;;27.37;40.63
30819;BME280;17546;42.674;23.284;2023-06-22T01:57:05;95152.38;;;27.32;40.45
30819;BME280;17546;42.674;23.284;2023-06-22T01:59:41;95160.59;;;27.37;40.80
30819;BME280;17546;42.674;23.284;2023-06-22T02:02:11;95149.53;;;27.22;41.06
30819;BME280;17546;42.674;23.284;2023-06-22T02:05:09;95180.66;;;27.39;40.97
30819;BME280;17546;42.674;23.284;2023-06-22T02:07:56;95149.97;;;27.09;41.35
30819;BME280;17546;42.674;23.284;2023-06-22T02:10:26;95191.44;;;27.22;41.11
30819;BME280;17546;42.674;23.284;2023-06-22T02:12:54;95172.84;;;27.20;40.74
30819;BME280;17546;42.674;23.284;2023-06-22T02:15:20;95178.56;;;27.30;41.04
30819;BME280;17546;42.674;23.284;2023-06-22T02:17:47;95173.78;;;27.23;40.83
30819;BME280;17546;42.674;23.284;2023-06-22T02:20:19;95163.00;;;27.22;41.37
30819;BME280;17546;42.674;23.284;2023-06-22T02:22:45;95137.56;;;26.94;40.95
30819;BME280;17546;42.674;23.284;2023-06-22T02:25:10;95174.47;;;27.14;40.40
30819;BME280;17546;42.674;23.284;2023-06-22T02:27:36;95163.88;;;27.05;40.81
30819;BME280;17546;42.674;23.284;2023-06-22T02:30:08;95126.63;;;26.91;40.55
30819;BME280;17546;42.674;23.284;2023-06-22T02:32:36;95140.97;;;27.03;40.12
30819;BME280;17546;42.674;23.284;2023-06-22T02:35:02;95157.59;;;26.96;40.06
30819;BME280;17546;42.674;23.284;2023-06-22T02:37:32;95155.56;;;26.50;40.26
30819;BME280;17546;42.674;23.284;2023-06-22T02:39:57;95174.09;;;26.42;40.71
30819;BME280;17546;42.674;23.284;2023-06-22T02:42:23;95140.97;;;25.80;41.82
30819;BME280;17546;42.674;23.284;2023-06-22T02:44:48;95179.19;;;26.06;42.16
30819;BME280;17546;42.674;23.284;2023-06-22T02:47:15;95163.09;;;26.18;41.45
30819;BME280;17546;42.674;23.284;2023-06-22T02:49:41;95166.56;;;26.27;42.16
30819;BME280;17546;42.674;23.284;2023-06-22T02:52:07;95162.09;;;26.33;42.01
30819;BME280;17546;42.674;23.284;2023-06-22T02:54:32;95154.47;;;26.36;42.00
30819;BME280;17546;42.674;23.284;2023-06-22T02:56:59;95144.16;;;26.31;42.09
30819;BME280;17546;42.674;23.284;2023-06-22T02:59:27;95137.44;;;26.36;41.69
30819;BME280;17546;42.674;23.284;2023-06-22T03:01:53;95157.22;;;26.53;41.74
30819;BME280;17546;42.674;23.284;2023-06-22T03:04:19;95134.59;;;26.46;42.04
30819;BME280;17546;42.674;23.284;2023-06-22T03:06:44;95175.66;;;26.62;42.01
30819;BME280;17546;42.674;23.284;2023-06-22T03:09:16;95144.19;;;26.41;41.91
30819;BME280;17546;42.674;23.284;2023-06-22T03:11:42;95142.69;;;26.39;42.19
30819;BME280;17546;42.674;23.284;2023-06-22T03:14:08;95172.06;;;26.71;41.97
30819;BME280;17546;42.674;23.284;2023-06-22T03:16:33;95188.09;;;26.86;41.66
30819;BME280;17546;42.674;23.284;2023-06-22T03:18:59;95191.22;;;26.80;41.89
30819;BME280;17546;42.674;23.284;2023-06-22T03:21:28;95209.16;;;26.83;41.91
30819;BME280;17546;42.674;23.284;2023-06-22T03:23:54;95194.84;;;26.81;42.24
30819;BME280;17546;42.674;23.284;2023-06-22T03:26:19;95189.72;;;26.79;42.22
30819;BME280;17546;42.674;23.284;2023-06-22T03:28:45;95204.09;;;26.91;42.00
30819;BME280;17546;42.674;23.284;2023-06-22T03:31:11;95170.13;;;26.74;42.54
30819;BME280;17546;42.674;23.284;2023-06-22T03:33:36;95176.41;;;26.72;42.42
30819;BME280;17546;42.674;23.284;2023-06-22T03:36:02;95201.25;;;26.91;42.34
30819;BME280;17546;42.674;23.284;2023-06-22T03:38:27;95178.81;;;26.76;42.03
30819;BME280;17546;42.674;23.284;2023-06-22T03:40:53;95219.09;;;27.02;41.75
30819;BME280;17546;42.674;23.284;2023-06-22T03:43:18;95186.91;;;26.89;42.09
30819;BME280;17546;42.674;23.284;2023-06-22T03:45:43;95218.34;;;27.11;41.53
30819;BME280;17546;42.674;23.284;2023-06-22T03:48:11;95236.50;;;27.25;42.01
30819;BME280;17546;42.674;23.284;2023-06-22T03:50:36;95220.28;;;27.18;41.96
30819;BME280;17546;42.674;23.284;2023-06-22T03:53:02;95227.31;;;26.97;42.17
30819;BME280;17546;42.674;23.284;2023-06-22T03:55:27;95225.63;;;26.75;42.78
30819;BME280;17546;42.674;23.284;2023-06-22T03:57:53;95197.53;;;26.42;42.96
30819;BME280;17546;42.674;23.284;2023-06-22T04:00:24;95194.81;;;26.34;43.21
30819;BME280;17546;42.674;23.284;2023-06-22T04:02:50;95222.38;;;26.51;43.01
30819;BME280;17546;42.674;23.284;2023-06-22T04:05:15;95194.06;;;26.24;43.43
30819;BME280;17546;42.674;23.284;2023-06-22T04:07:43;95221.53;;;26.22;43.76
30819;BME280;17546;42.674;23.284;2023-06-22T04:10:09;95196.91;;;26.34;43.50
30819;BME280;17546;42.674;23.284;2023-06-22T04:12:34;95167.16;;;26.25;43.33
30819;BME280;17546;42.674;23.284;2023-06-22T04:15:00;95198.47;;;26.54;43.31
30819;BME280;17546;42.674;23.284;2023-06-22T04:17:25;95209.09;;;26.54;43.70
30819;BME280;17546;42.674;23.284;2023-06-22T04:19:51;95197.16;;;26.65;43.30
30819;BME280;17546;42.674;23.284;2023-06-22T04:22:17;95180.91;;;26.66;43.45
30819;BME280;17546;42.674;23.284;2023-06-22T04:24:43;95174.00;;;26.69;43.33
30819;BME280;17546;42.674;23.284;2023-06-22T04:27:08;95176.84;;;26.78;43.12
30819;BME280;17546;42.674;23.284;2023-06-22T04:29:34;95193.03;;;26.95;42.67
30819;BME280;17546;42.674;23.284;2023-06-22T04:31:59;95150.84;;;26.72;43.12
30819;BME280;17546;42.674;23.284;2023-06-22T04:34:28;95202.75;;;27.12;42.84
30819;BME280;17546;42.674;23.284;2023-06-22T04:36:54;95208.16;;;27.17;43.20
30819;BME280;17546;42.674;23.284;2023-06-22T04:39:20;95199.97;;;27.22;42.87
30819;BME280;17546;42.674;23.284;2023-06-22T04:41:46;95211.47;;;27.33;42.39
30819;BME280;17546;42.674;23.284;2023-06-22T04:44:12;95174.47;;;27.14;42.75
30819;BME280;17546;42.674;23.284;2023-06-22T04:46:38;95195.16;;;27.34;42.38
30819;BME280;17546;42.674;23.284;2023-06-22T04:49:07;95217.47;;;27.47;41.79
30819;BME280;17546;42.674;23.284;2023-06-22T04:51:44;95135.59;;;26.97;41.60
30819;BME280;17546;42.674;23.284;2023-06-22T04:54:09;95221.06;;;27.48;41.95
30819;BME280;17546;42.674;23.284;2023-06-22T04:56:35;95183.00;;;27.14;41.85
30819;BME280;17546;42.674;23.284;2023-06-22T04:59:01;95216.59;;;27.25;42.59
30819;BME280;17546;42.674;23.284;2023-06-22T05:01:28;95217.13;;;27.14;42.46
30819;BME280;17546;42.674;23.284;2023-06-22T05:03:53;95226.84;;;27.20;42.40
30819;BME280;17546;42.674;23.284;2023-06-22T05:06:22;95205.00;;;27.13;41.55
30819;BME280;17546;42.674;23.284;2023-06-22T05:08:52;95177.63;;;27.08;41.22
30819;BME280;17546;42.674;23.284;2023-06-22T05:11:23;95199.53;;;27.25;41.88
30819;BME280;17546;42.674;23.284;2023-06-22T05:13:49;95227.78;;;27.42;41.67
30819;BME280;17546;42.674;23.284;2023-06-22T05:16:14;95212.22;;;27.34;41.29
30819;BME280;17546;42.674;23.284;2023-06-22T05:18:39;95218.50;;;27.42;41.12
30819;BME280;17546;42.674;23.284;2023-06-22T05:21:06;95228.97;;;27.49;41.47
30819;BME280;17546;42.674;23.284;2023-06-22T05:23:32;95211.03;;;27.47;41.36
30819;BME280;17546;42.674;23.284;2023-06-22T05:25:57;95215.81;;;27.54;40.79
30819;BME280;17546;42.674;23.284;2023-06-22T05:28:23;95225.56;;;27.60;40.82
30819;BME280;17546;42.674;23.284;2023-06-22T05:30:48;95201.28;;;27.11;41.77
30819;BME280;17546;42.674;23.284;2023-06-22T05:33:14;95224.94;;;27.42;41.12
30819;BME280;17546;42.674;23.284;2023-06-22T05:35:39;95235.13;;;27.65;40.93
30819;BME280;17546;42.674;23.284;2023-06-22T05:38:04;95196.50;;;27.42;41.32
30819;BME280;17546;42.674;23.284;2023-06-22T05:40:30;95244.25;;;27.64;41.79
30819;BME280;17546;42.674;23.284;2023-06-22T05:42:55;95245.28;;;27.68;41.79
30819;BME280;17546;42.674;23.284;2023-06-22T05:45:20;95236.94;;;27.60;41.56
30819;BME280;17546;42.674;23.284;2023-06-22T05:47:46;95248.13;;;27.78;41.38
30819;BME280;17546;42.674;23.284;2023-06-22T05:50:11;95222.53;;;27.68;41.94
30819;BME280;17546;42.674;23.284;2023-06-22T05:52:37;95249.91;;;27.73;41.55
30819;BME280;17546;42.674;23.284;2023-06-22T05:55:02;95243.03;;;27.96;41.70
30819;BME280;17546;42.674;23.284;2023-06-22T05:57:28;95245.56;;;28.11;41.69
30819;BME280;17546;42.674;23.284;2023-06-22T05:59:53;95250.34;;;28.09;41.20
30819;BME280;17546;42.674;23.284;2023-06-22T06:02:19;95263.19;;;28.19;41.47
30819;BME280;17546;42.674;23.284;2023-06-22T06:04:44;95254.16;;;28.33;41.41
30819;BME280;17546;42.674;23.284;2023-06-22T06:07:10;95222.97;;;27.74;41.48
30819;BME280;17546;42.674;23.284;2023-06-22T06:09:35;95249.84;;;28.22;41.44
30819;BME280;17546;42.674;23.284;2023-06-22T06:12:01;95200.59;;;28.00;41.12
30819;BME280;17546;42.674;23.284;2023-06-22T06:14:28;95247.38;;;28.79;40.55
30819;BME280;17546;42.674;23.284;2023-06-22T06:16:53;95225.56;;;28.93;40.56
30819;BME280;17546;42.674;23.284;2023-06-22T06:19:19;95198.91;;;28.79;40.24
30819;BME280;17546;42.674;23.284;2023-06-22T06:21:44;95235.34;;;29.33;40.48
30819;BME280;17546;42.674;23.284;2023-06-22T06:24:11;95240.88;;;29.74;39.83
30819;BME280;17546;42.674;23.284;2023-06-22T06:26:37;95236.09;;;30.00;38.57
30819;BME280;17546;42.674;23.284;2023-06-22T06:29:02;95235.63;;;30.16;38.10
30819;BME280;17546;42.674;23.284;2023-06-22T06:31:28;95200.53;;;30.37;38.33
30819;BME280;17546;42.674;23.284;2023-06-22T06:33:54;95232.50;;;30.92;37.29
30819;BME280;17546;42.674;23.284;2023-06-22T06:36:20;95237.88;;;31.23;37.15
30819;BME280;17546;42.674;23.284;2023-06-22T06:38:46;95199.88;;;30.97;36.20
30819;BME280;17546;42.674;23.284;2023-06-22T06:41:16;95211.06;;;31.54;37.11
30819;BME280;17546;42.674;23.284;2023-06-22T06:43:42;95232.22;;;31.86;36.81
30819;BME280;17546;42.674;23.284;2023-06-22T06:46:10;95227.50;;;32.30;36.01
30819;BME280;17546;42.674;23.284;2023-06-22T06:48:35;95223.38;;;32.47;35.38
30819;BME280;17546;42.674;23.284;2023-06-22T06:51:01;95225.44;;;32.86;34.94
30819;BME280;17546;42.674;23.284;2023-06-22T06:53:26;95220.66;;;32.63;34.92
30819;BME280;17546;42.674;23.284;2023-06-22T06:55:53;95187.72;;;32.50;34.73
30819;BME280;17546;42.674;23.284;2023-06-22T06:58:18;95216.00;;;32.70;34.82
30819;BME280;17546;42.674;23.284;2023-06-22T07:00:44;95191.69;;;32.18;35.39
30819;BME280;17546;42.674;23.284;2023-06-22T07:03:10;95201.22;;;32.76;33.68
30819;BME280;17546;42.674;23.284;2023-06-22T07:05:35;95214.09;;;32.75;34.25
30819;BME280;17546;42.674;23.284;2023-06-22T07:08:01;95207.09;;;32.24;34.94
30819;BME280;17546;42.674;23.284;2023-06-22T07:10:26;95169.13;;;32.38;34.05
30819;BME280;17546;42.674;23.284;2023-06-22T07:12:52;95204.25;;;32.38;33.86
30819;BME280;17546;42.674;23.284;2023-06-22T07:15:17;95195.31;;;32.32;34.34
30819;BME280;17546;42.674;23.284;2023-06-22T07:17:43;95210.53;;;33.31;32.67
30819;BME280;17546;42.674;23.284;2023-06-22T07:20:09;95214.09;;;33.16;32.95
30819;BME280;17546;42.674;23.284;2023-06-22T07:22:38;95208.56;;;32.92;33.19
30819;BME280;17546;42.674;23.284;2023-06-22T07:25:04;95209.19;;;32.91;34.22
30819;BME280;17546;42.674;23.284;2023-06-22T07:27:36;95214.63;;;33.12;34.06
30819;BME280;17546;42.674;23.284;2023-06-22T07:30:04;95215.31;;;33.27;34.29
30819;BME280;17546;42.674;23.284;2023-06-22T07:32:29;95206.94;;;33.03;33.90
30819;BME280;17546;42.674;23.284;2023-06-22T07:34:55;95199.72;;;32.88;34.13
30819;BME280;17546;42.674;23.284;2023-06-22T07:37:20;95201.97;;;32.76;34.01
30819;BME280;17546;42.674;23.284;2023-06-22T07:39:46;95218.44;;;33.03;34.02
30819;BME280;17546;42.674;23.284;2023-06-22T07:42:11;95225.22;;;33.24;33.53
30819;BME280;17546;42.674;23.284;2023-06-22T07:44:37;95186.34;;;33.21;34.13
30819;BME280;17546;42.674;23.284;2023-06-22T07:47:02;95224.75;;;33.87;33.17
30819;BME280;17546;42.674;23.284;2023-06-22T07:49:28;95204.19;;;34.08;32.36
30819;BME280;17546;42.674;23.284;2023-06-22T07:51:53;95192.78;;;34.24;31.42
30819;BME280;17546;42.674;23.284;2023-06-22T07:54:19;95210.50;;;34.66;31.77
30819;BME280;17546;42.674;23.284;2023-06-22T07:56:46;95219.88;;;34.67;32.04
30819;BME280;17546;42.674;23.284;2023-06-22T07:59:11;95215.78;;;34.40;32.58
30819;BME280;17546;42.674;23.284;2023-06-22T08:01:40;95221.53;;;34.56;32.53
30819;BME280;17546;42.674;23.284;2023-06-22T08:04:05;95200.09;;;33.82;33.03
30819;BME280;17546;42.674;23.284;2023-06-22T08:06:31;95217.25;;;34.41;32.17
30819;BME280;17546;42.674;23.284;2023-06-22T08:08:56;95204.75;;;33.59;33.73
30819;BME280;17546;42.674;23.284;2023-06-22T08:11:22;95208.06;;;33.83;34.19
30819;BME280;17546;42.674;23.284;2023-06-22T08:13:50;95165.63;;;33.38;34.55
30819;BME280;17546;42.674;23.284;2023-06-22T08:16:15;95195.41;;;33.59;34.20
30819;BME280;17546;42.674;23.284;2023-06-22T08:18:41;95205.25;;;33.69;34.42
30819;BME280;17546;42.674;23.284;2023-06-22T08:21:06;95188.78;;;33.86;33.71
30819;BME280;17546;42.674;23.284;2023-06-22T08:23:32;95190.22;;;33.71;33.89
30819;BME280;17546;42.674;23.284;2023-06-22T08:25:57;95196.63;;;34.15;33.31
30819;BME280;17546;42.674;23.284;2023-06-22T08:28:23;95187.19;;;34.60;33.24
30819;BME280;17546;42.674;23.284;2023-06-22T08:30:48;95191.09;;;34.83;31.92
30819;BME280;17546;42.674;23.284;2023-06-22T08:33:13;95186.91;;;34.70;32.25
30819;BME280;17546;42.674;23.284;2023-06-22T08:35:39;95199.44;;;34.76;31.89
30819;BME280;17546;42.674;23.284;2023-06-22T08:38:07;95205.78;;;34.73;32.34
30819;BME280;17546;42.674;23.284;2023-06-22T08:40:34;95184.59;;;34.50;32.31
30819;BME280;17546;42.674;23.284;2023-06-22T08:42:59;95197.19;;;34.91;31.39
30819;BME280;17546;42.674;23.284;2023-06-22T08:45:24;95202.88;;;34.89;31.55
30819;BME280;17546;42.674;23.284;2023-06-22T08:47:50;95194.47;;;35.11;31.72
30819;BME280;17546;42.674;23.284;2023-06-22T08:50:15;95201.50;;;35.24;32.06
30819;BME280;17546;42.674;23.284;2023-06-22T08:52:40;95190.31;;;34.98;30.97
30819;BME280;17546;42.674;23.284;2023-06-22T08:55:07;95177.84;;;35.09;31.65
30819;BME280;17546;42.674;23.284;2023-06-22T08:57:33;95192.56;;;35.51;31.30
30819;BME280;17546;42.674;23.284;2023-06-22T08:59:59;95173.00;;;35.48;29.94
30819;BME280;17546;42.674;23.284;2023-06-22T09:02:27;95145.03;;;35.68;30.89
30819;BME280;17546;42.674;23.284;2023-06-22T09:04:57;95161.63;;;36.06;30.39
30819;BME280;17546;42.674;23.284;2023-06-22T09:07:23;95175.34;;;36.63;30.51
30819;BME280;17546;42.674;23.284;2023-06-22T09:09:50;95169.19;;;36.15;28.78
30819;BME280;17546;42.674;23.284;2023-06-22T09:12:16;95169.81;;;36.31;27.92
30819;BME280;17546;42.674;23.284;2023-06-22T09:14:42;95167.25;;;36.59;27.72
30819;BME280;17546;42.674;23.284;2023-06-22T09:17:07;95164.72;;;36.30;27.52
30819;BME280;17546;42.674;23.284;2023-06-22T09:19:33;95171.84;;;36.67;27.28
30819;BME280;17546;42.674;23.284;2023-06-22T09:21:58;95173.53;;;36.54;26.16
30819;BME280;17546;42.674;23.284;2023-06-22T09:24:24;95164.00;;;35.93;26.01
30819;BME280;17546;42.674;23.284;2023-06-22T09:26:50;95171.75;;;36.45;25.47
30819;BME280;17546;42.674;23.284;2023-06-22T09:29:15;95167.00;;;36.71;26.72
30819;BME280;17546;42.674;23.284;2023-06-22T09:31:41;95175.91;;;36.79;26.55
30819;BME280;17546;42.674;23.284;2023-06-22T09:34:06;95175.63;;;36.91;25.47
30819;BME280;17546;42.674;23.284;2023-06-22T09:36:32;95161.72;;;36.86;25.09
30819;BME280;17546;42.674;23.284;2023-06-22T09:38:57;95180.06;;;37.14;25.87
30819;BME280;17546;42.674;23.284;2023-06-22T09:41:24;95186.91;;;37.25;26.09
30819;BME280;17546;42.674;23.284;2023-06-22T09:43:50;95173.56;;;36.94;25.65
30819;BME280;17546;42.674;23.284;2023-06-22T09:46:16;95170.16;;;37.63;26.25
30819;BME280;17546;42.674;23.284;2023-06-22T09:48:41;95182.69;;;37.50;26.87
30819;BME280;17546;42.674;23.284;2023-06-22T09:51:07;95181.47;;;37.55;26.02
30819;BME280;17546;42.674;23.284;2023-06-22T09:53:32;95148.97;;;37.35;26.39
30819;BME280;17546;42.674;23.284;2023-06-22T09:55:59;95155.09;;;37.45;26.91
30819;BME280;17546;42.674;23.284;2023-06-22T09:58:25;95159.09;;;37.56;27.10
30819;BME280;17546;42.674;23.284;2023-06-22T10:00:51;95158.56;;;36.99;27.12
30819;BME280;17546;42.674;23.284;2023-06-22T10:03:16;95138.41;;;37.21;26.52
30819;BME280;17546;42.674;23.284;2023-06-22T10:05:42;95153.22;;;37.32;26.31
30819;BME280;17546;42.674;23.284;2023-06-22T10:08:08;95152.72;;;37.59;25.97
30819;BME280;17546;42.674;23.284;2023-06-22T10:10:35;95161.72;;;37.94;25.51
30819;BME280;17546;42.674;23.284;2023-06-22T10:13:07;95156.22;;;38.02;26.89
30819;BME280;17546;42.674;23.284;2023-06-22T10:15:34;95163.34;;;38.23;25.90
30819;BME280;17546;42.674;23.284;2023-06-22T10:18:00;95165.31;;;38.40;25.82
30819;BME280;17546;42.674;23.284;2023-06-22T10:20:25;95151.16;;;38.27;25.35
30819;BME280;17546;42.674;23.284;2023-06-22T10:22:51;95119.03;;;37.46;24.99
30819;BME280;17546;42.674;23.284;2023-06-22T10:25:17;95147.56;;;37.80;24.40
30819;BME280;17546;42.674;23.284;2023-06-22T10:27:42;95149.28;;;37.89;24.84
30819;BME280;17546;42.674;23.284;2023-06-22T10:30:11;95129.44;;;37.33;24.80
30819;BME280;17546;42.674;23.284;2023-06-22T10:32:41;95141.25;;;37.63;25.62
30819;BME280;17546;42.674;23.284;2023-06-22T10:35:10;95140.66;;;37.45;24.79
30819;BME280;17546;42.674;23.284;2023-06-22T10:37:36;95100.75;;;37.61;25.98
30819;BME280;17546;42.674;23.284;2023-06-22T10:40:02;95115.59;;;37.52;25.52
30819;BME280;17546;42.674;23.284;2023-06-22T10:42:28;95127.69;;;37.46;24.58
30819;BME280;17546;42.674;23.284;2023-06-22T10:44:54;95098.84;;;37.48;25.50
30819;BME280;17546;42.674;23.284;2023-06-22T10:47:19;95129.50;;;37.79;25.36
30819;BME280;17546;42.674;23.284;2023-06-22T10:49:45;95120.28;;;37.41;25.66
30819;BME280;17546;42.674;23.284;2023-06-22T10:52:10;95112.94;;;37.82;24.98
30819;BME280;17546;42.674;23.284;2023-06-22T10:54:37;95096.78;;;37.73;25.56
30819;BME280;17546;42.674;23.284;2023-06-22T10:57:03;95121.28;;;38.18;25.72
30819;BME280;17546;42.674;23.284;2023-06-22T10:59:28;95121.97;;;37.94;25.34
30819;BME280;17546;42.674;23.284;2023-06-22T11:01:58;95121.38;;;37.98;25.16
30819;BME280;17546;42.674;23.284;2023-06-22T11:04:24;95118.19;;;38.12;26.15
30819;BME280;17546;42.674;23.284;2023-06-22T11:06:50;95116.00;;;38.10;25.06
30819;BME280;17546;42.674;23.284;2023-06-22T11:09:16;95077.94;;;37.96;25.08
30819;BME280;17546;42.674;23.284;2023-06-22T11:11:50;95116.72;;;38.11;25.01
30819;BME280;17546;42.674;23.284;2023-06-22T11:14:16;95091.63;;;37.93;24.68
30819;BME280;17546;42.674;23.284;2023-06-22T11:16:41;95097.28;;;37.89;24.35
30819;BME280;17546;42.674;23.284;2023-06-22T11:19:07;95084.47;;;37.50;24.67
30819;BME280;17546;42.674;23.284;2023-06-22T11:21:33;95108.94;;;37.69;24.58
30819;BME280;17546;42.674;23.284;2023-06-22T11:23:59;95097.06;;;37.15;25.18
30819;BME280;17546;42.674;23.284;2023-06-22T11:26:25;95098.84;;;37.48;25.20
30819;BME280;17546;42.674;23.284;2023-06-22T11:28:54;95087.91;;;37.67;26.12
30819;BME280;17546;42.674;23.284;2023-06-22T11:31:19;95097.53;;;37.97;26.33
30819;BME280;17546;42.674;23.284;2023-06-22T11:33:44;95083.84;;;37.76;24.82
30819;BME280;17546;42.674;23.284;2023-06-22T11:36:11;95086.13;;;37.55;25.08
30819;BME280;17546;42.674;23.284;2023-06-22T11:38:37;95096.72;;;37.05;25.17
30819;BME280;17546;42.674;23.284;2023-06-22T11:41:05;95087.66;;;37.58;25.02
30819;BME280;17546;42.674;23.284;2023-06-22T11:43:31;95097.13;;;37.61;27.54
30819;BME280;17546;42.674;23.284;2023-06-22T11:45:56;95075.38;;;37.58;28.19
30819;BME280;17546;42.674;23.284;2023-06-22T11:48:25;95079.66;;;37.57;26.60
30819;BME280;17546;42.674;23.284;2023-06-22T11:50:51;95057.72;;;37.26;26.93
30819;BME280;17546;42.674;23.284;2023-06-22T11:53:16;95069.03;;;37.41;27.58
30819;BME280;17546;42.674;23.284;2023-06-22T11:55:43;95079.88;;;37.19;29.21
30819;BME280;17546;42.674;23.284;2023-06-22T11:58:09;95083.31;;;36.71;28.50
30819;BME280;17546;42.674;23.284;2023-06-22T12:00:34;95083.28;;;36.31;29.38
30819;BME280;17546;42.674;23.284;2023-06-22T12:02:59;95085.59;;;35.59;31.14
30819;BME280;17546;42.674;23.284;2023-06-22T12:05:25;95082.97;;;35.47;30.87
30819;BME280;17546;42.674;23.284;2023-06-22T12:07:53;95064.22;;;35.28;30.98
30819;BME280;17546;42.674;23.284;2023-06-22T12:10:19;95102.13;;;35.41;31.88
30819;BME280;17546;42.674;23.284;2023-06-22T12:12:44;95102.94;;;35.25;31.62
30819;BME280;17546;42.674;23.284;2023-06-22T12:15:10;95074.38;;;34.95;30.97
30819;BME280;17546;42.674;23.284;2023-06-22T12:17:36;95101.09;;;34.98;31.63
30819;BME280;17546;42.674;23.284;2023-06-22T12:20:01;95107.56;;;35.14;32.21
30819;BME280;17546;42.674;23.284;2023-06-22T12:22:31;95114.84;;;34.66;31.88
30819;BME280;17546;42.674;23.284;2023-06-22T12:24:56;95096.31;;;33.89;34.88
30819;BME280;17546;42.674;23.284;2023-06-22T12:27:22;95113.84;;;33.50;37.08
30819;BME280;17546;42.674;23.284;2023-06-22T12:29:48;95110.44;;;32.66;38.70
30819;BME280;17546;42.674;23.284;2023-06-22T12:32:14;95111.16;;;31.86;41.08
30819;BME280;17546;42.674;23.284;2023-06-22T12:34:43;95111.09;;;30.95;43.05
30819;BME280;17546;42.674;23.284;2023-06-22T12:37:09;95121.44;;;30.27;44.27
30819;BME280;17546;42.674;23.284;2023-06-22T12:39:34;95129.09;;;30.60;43.54
30819;BME280;17546;42.674;23.284;2023-06-22T12:42:00;95090.06;;;30.53;42.67
30819;BME280;17546;42.674;23.284;2023-06-22T12:44:25;95124.41;;;31.02;43.26
30819;BME280;17546;42.674;23.284;2023-06-22T12:46:50;95122.25;;;31.15;42.67
30819;BME280;17546;42.674;23.284;2023-06-22T12:49:16;95116.44;;;30.40;44.74
30819;BME280;17546;42.674;23.284;2023-06-22T12:51:42;95126.69;;;30.68;43.92